Time;durP1;ratioP1;P1;durP2;ratioP2;P2;SDS_P1;SDS_P2;PMS_P1;PMS_P2;Temp;Humidity;BMP_temperature;BMP_pressure;BME280_temperature;BME280_humidity;BME280_pressure;Samples;Min_cycle;Max_cycle;Signal;HPM_P1;HPM_P2
2022/08/09 00:00:07;;;;;;;11.20;10.50;;;17.60;99.90;;;;;;5065408;28;20470;-69
2022/08/09 00:02:34;;;;;;;11.60;10.90;;;17.60;99.90;;;;;;5061162;28;20463;-68
2022/08/09 00:05:01;;;;;;;11.93;11.03;;;17.60;99.90;;;;;;5055217;28;20468;-68
2022/08/09 00:07:28;;;;;;;11.47;10.70;;;17.60;99.90;;;;;;5055363;28;20901;-69
2022/08/09 00:09:57;;;;;;;11.23;10.63;;;17.50;99.90;;;;;;5067285;28;20459;-68
2022/08/09 00:12:24;;;;;;;11.53;10.53;;;17.50;99.90;;;;;;5063416;28;20474;-68
2022/08/09 00:14:51;;;;;;;11.33;10.73;;;17.50;99.90;;;;;;5056843;28;20467;-68
2022/08/09 00:17:19;;;;;;;11.70;10.50;;;17.40;99.90;;;;;;5057083;28;20935;-67
2022/08/09 00:19:47;;;;;;;11.90;10.73;;;17.40;99.90;;;;;;5061903;28;20463;-66
2022/08/09 00:22:14;;;;;;;12.30;11.30;;;17.40;99.90;;;;;;5063402;28;20751;-66
2022/08/09 00:24:41;;;;;;;11.30;10.50;;;17.30;99.90;;;;;;5061551;28;20511;-66
2022/08/09 00:27:09;;;;;;;14.00;10.80;;;17.30;99.90;;;;;;5056557;28;20459;-66
2022/08/09 00:29:37;;;;;;;12.13;11.27;;;17.30;99.90;;;;;;5061577;28;20988;-66
2022/08/09 00:32:04;;;;;;;11.97;11.03;;;17.30;99.90;;;;;;5059173;28;20463;-68
2022/08/09 00:34:31;;;;;;;10.73;10.03;;;17.20;99.90;;;;;;5061258;28;20463;-68
2022/08/09 00:37:00;;;;;;;12.03;11.23;;;17.20;99.90;;;;;;5062136;28;20546;-68
2022/08/09 00:39:27;;;;;;;11.73;10.90;;;17.20;99.90;;;;;;5056341;28;20463;-68
2022/08/09 00:41:54;;;;;;;12.00;11.00;;;17.10;99.90;;;;;;5067360;28;20470;-69
2022/08/09 00:44:22;;;;;;;12.50;11.50;;;17.10;99.90;;;;;;5063915;28;20497;-68
2022/08/09 00:46:49;;;;;;;12.73;11.70;;;17.10;99.90;;;;;;5060410;28;20492;-68
2022/08/09 00:49:19;;;;;;;11.47;10.80;;;17.10;99.90;;;;;;5062804;28;20462;-68
2022/08/09 00:51:48;;;;;;;12.40;11.20;;;17.10;99.90;;;;;;5066816;28;20498;-68
2022/08/09 00:54:15;;;;;;;12.37;11.33;;;17.00;99.90;;;;;;5067182;28;20542;-68
2022/08/09 00:56:42;;;;;;;12.63;11.53;;;16.90;99.90;;;;;;5061040;28;20996;-69
2022/08/09 00:59:09;;;;;;;12.30;11.53;;;16.90;99.90;;;;;;5062036;28;20467;-68
2022/08/09 01:01:40;;;;;;;13.37;12.10;;;16.80;99.90;;;;;;5062173;28;20855;-68
2022/08/09 01:04:15;;;;;;;11.67;10.97;;;16.80;99.90;;;;;;5056752;28;20496;-68
2022/08/09 01:06:48;;;;;;;12.13;11.10;;;16.80;99.90;;;;;;5062199;28;20470;-68
2022/08/09 01:09:24;;;;;;;12.63;11.57;;;16.80;99.90;;;;;;5072020;28;20839;-68
2022/08/09 01:11:58;;;;;;;11.80;11.10;;;16.70;99.90;;;;;;5061431;28;20463;-68
2022/08/09 01:14:30;;;;;;;12.57;11.50;;;16.60;99.90;;;;;;5061197;28;20478;-68
2022/08/09 01:17:07;;;;;;;12.40;11.40;;;16.70;99.90;;;;;;5057200;28;20495;-69
2022/08/09 01:19:46;;;;;;;12.57;11.60;;;16.70;99.90;;;;;;5062621;28;20465;-68
2022/08/09 01:22:52;;;;;;;11.60;10.60;;;16.70;99.90;;;;;;5065680;28;20459;-69
2022/08/09 01:25:35;;;;;;;12.97;11.67;;;16.60;99.90;;;;;;5060034;28;20827;-68
2022/08/09 01:28:07;;;;;;;11.80;10.93;;;16.60;99.90;;;;;;5061592;28;20463;-68
2022/08/09 01:30:36;;;;;;;12.30;11.40;;;16.60;99.90;;;;;;5052752;28;20455;-69
2022/08/09 01:33:07;;;;;;;12.70;11.70;;;16.60;99.90;;;;;;5062880;28;21108;-68
2022/08/09 01:35:39;;;;;;;13.47;12.37;;;16.50;99.90;;;;;;5064588;28;20466;-68
2022/08/09 01:38:10;;;;;;;12.27;11.57;;;16.50;99.90;;;;;;5059344;28;20470;-68
2022/08/09 01:40:44;;;;;;;11.80;11.03;;;16.50;99.90;;;;;;5064836;28;20821;-68
2022/08/09 01:43:14;;;;;;;12.00;11.20;;;16.60;99.90;;;;;;5060904;28;20491;-68
2022/08/09 01:45:42;;;;;;;14.43;10.60;;;16.50;99.90;;;;;;5062468;28;20460;-68
2022/08/09 01:48:09;;;;;;;12.00;11.23;;;16.50;99.90;;;;;;5063749;28;20484;-68
2022/08/09 01:50:38;;;;;;;12.57;11.57;;;16.50;99.90;;;;;;5061608;28;20460;-68
2022/08/09 01:53:06;;;;;;;12.30;11.30;;;16.50;99.90;;;;;;5062967;28;20953;-68
2022/08/09 01:55:35;;;;;;;11.30;10.60;;;16.40;99.90;;;;;;5056849;28;20464;-68
2022/08/09 01:58:03;;;;;;;11.50;10.70;;;16.40;99.90;;;;;;5063252;28;20972;-68
2022/08/09 02:00:33;;;;;;;11.90;11.07;;;16.30;99.90;;;;;;5060652;28;20459;-69
2022/08/09 02:03:02;;;;;;;11.33;10.63;;;16.40;99.90;;;;;;5062568;28;21063;-68
2022/08/09 02:05:32;;;;;;;12.00;11.00;;;16.30;99.90;;;;;;5062583;28;20470;-68
2022/08/09 02:08:02;;;;;;;12.13;11.23;;;16.30;99.90;;;;;;5063154;28;20499;-69
2022/08/09 02:10:32;;;;;;;11.37;10.63;;;16.30;99.90;;;;;;5059732;28;20460;-68
2022/08/09 02:13:03;;;;;;;13.00;11.93;;;16.30;99.90;;;;;;5053483;28;20464;-68
2022/08/09 02:15:34;;;;;;;14.03;12.80;;;16.30;99.90;;;;;;5059242;28;20483;-68
2022/08/09 02:18:02;;;;;;;12.00;11.10;;;16.30;99.90;;;;;;5060799;28;20475;-68
2022/08/09 02:20:31;;;;;;;11.93;11.23;;;16.20;99.90;;;;;;5060939;28;20459;-68
2022/08/09 02:23:05;;;;;;;12.63;11.60;;;16.10;99.90;;;;;;5060699;28;20838;-68
2022/08/09 02:25:36;;;;;;;12.50;11.70;;;16.10;99.90;;;;;;5060893;28;20463;-69
2022/08/09 02:28:07;;;;;;;13.37;12.20;;;16.10;99.90;;;;;;5061747;28;20470;-68
2022/08/09 02:30:40;;;;;;;12.67;11.87;;;16.10;99.90;;;;;;5062525;28;20459;-68
2022/08/09 02:33:07;;;;;;;12.60;11.50;;;16.10;99.90;;;;;;5062741;28;20510;-68
2022/08/09 02:35:37;;;;;;;13.30;12.00;;;16.10;99.90;;;;;;5057991;28;20467;-69
2022/08/09 02:38:06;;;;;;;15.93;11.43;;;16.10;99.90;;;;;;5063101;28;20464;-68
2022/08/09 02:40:36;;;;;;;13.47;12.13;;;16.10;99.90;;;;;;5054424;28;20516;-69
2022/08/09 02:43:05;;;;;;;12.50;11.53;;;16.10;99.90;;;;;;5060352;28;20463;-67
2022/08/09 02:45:40;;;;;;;12.80;11.90;;;16.00;99.90;;;;;;5061042;28;20540;-69
2022/08/09 02:48:10;;;;;;;11.90;10.80;;;16.00;99.90;;;;;;5060373;28;20851;-67
2022/08/09 02:50:41;;;;;;;12.50;11.50;;;16.00;99.90;;;;;;5061779;28;20456;-69
2022/08/09 02:53:12;;;;;;;14.00;12.80;;;16.00;99.90;;;;;;5063296;28;20464;-68
2022/08/09 02:55:43;;;;;;;11.97;11.07;;;15.90;99.90;;;;;;5058513;28;20486;-68
2022/08/09 02:58:11;;;;;;;12.63;11.33;;;15.90;99.90;;;;;;5057002;28;20463;-68
2022/08/09 03:00:41;;;;;;;19.97;12.13;;;15.90;99.90;;;;;;5061020;28;20809;-69
2022/08/09 03:03:09;;;;;;;12.50;11.70;;;15.90;99.90;;;;;;5061849;28;21188;-68
2022/08/09 03:05:36;;;;;;;14.63;11.87;;;15.90;99.90;;;;;;5062334;28;20495;-68
2022/08/09 03:08:05;;;;;;;12.57;11.57;;;15.90;99.90;;;;;;5060134;28;20459;-68
2022/08/09 03:10:34;;;;;;;13.17;12.10;;;15.90;99.90;;;;;;5063828;28;20518;-69
2022/08/09 03:13:02;;;;;;;14.43;12.43;;;15.90;99.90;;;;;;5059379;28;20981;-68
2022/08/09 03:15:29;;;;;;;13.23;12.13;;;15.90;99.90;;;;;;5057580;28;20479;-68
2022/08/09 03:17:59;;;;;;;13.40;11.67;;;15.90;99.90;;;;;;5062596;28;20482;-68
2022/08/09 03:20:28;;;;;;;11.33;10.53;;;15.90;99.90;;;;;;5063128;28;20843;-69
2022/08/09 03:22:55;;;;;;;11.00;10.30;;;15.80;99.90;;;;;;5062288;28;20553;-69
2022/08/09 03:25:24;;;;;;;12.20;11.40;;;15.80;99.90;;;;;;5056856;28;20487;-68
2022/08/09 03:27:52;;;;;;;11.50;10.70;;;15.80;99.90;;;;;;5059424;28;20707;-68
2022/08/09 03:30:19;;;;;;;12.70;11.70;;;15.90;99.90;;;;;;5061298;28;20513;-68
2022/08/09 03:32:46;;;;;;;11.33;10.53;;;15.90;99.90;;;;;;5059514;28;20454;-67
2022/08/09 03:35:14;;;;;;;13.27;12.07;;;15.90;99.90;;;;;;5054673;28;20454;-66
2022/08/09 03:37:41;;;;;;;12.07;11.20;;;15.80;99.90;;;;;;5055799;28;20495;-66
2022/08/09 03:40:10;;;;;;;12.30;11.20;;;15.70;99.90;;;;;;5062407;28;20459;-66
2022/08/09 03:42:37;;;;;;;12.77;11.90;;;15.80;99.90;;;;;;5060625;28;20458;-67
2022/08/09 03:45:05;;;;;;;12.53;11.70;;;15.80;99.90;;;;;;5058430;28;20486;-66
2022/08/09 03:47:32;;;;;;;12.83;11.70;;;15.70;99.90;;;;;;5062412;28;20783;-66
2022/08/09 03:50:00;;;;;;;13.33;12.23;;;15.70;99.90;;;;;;5058540;28;20472;-66
2022/08/09 03:52:30;;;;;;;12.90;11.80;;;15.70;99.90;;;;;;5052946;28;20463;-66
2022/08/09 03:54:59;;;;;;;12.60;11.70;;;15.70;99.90;;;;;;5053508;28;20463;-66
2022/08/09 03:57:26;;;;;;;12.27;11.47;;;15.60;99.90;;;;;;5057157;28;20474;-67
2022/08/09 03:59:53;;;;;;;13.37;12.07;;;15.50;99.90;;;;;;5060800;28;21287;-66
2022/08/09 04:02:22;;;;;;;13.20;12.30;;;15.40;99.90;;;;;;5046760;28;20474;-67
2022/08/09 04:04:49;;;;;;;13.80;12.50;;;15.30;99.90;;;;;;5036018;28;20621;-67
2022/08/09 04:07:17;;;;;;;13.00;12.00;;;15.30;99.90;;;;;;5052922;28;20493;-67
2022/08/09 04:09:45;;;;;;;12.97;11.80;;;15.20;99.90;;;;;;5053051;28;20482;-67
2022/08/09 04:12:36;;;;;;;12.53;11.73;;;15.20;99.90;;;;;;5037534;28;20458;-68
2022/08/09 04:15:03;;;;;;;13.17;11.63;;;15.10;99.90;;;;;;5037071;28;20561;-68
2022/08/09 04:17:30;;;;;;;12.50;11.40;;;15.10;99.90;;;;;;5038269;28;20776;-67
2022/08/09 04:19:57;;;;;;;11.93;11.07;;;15.00;99.90;;;;;;5038774;28;21469;-67
2022/08/09 04:22:25;;;;;;;13.70;11.80;;;15.00;99.90;;;;;;5036349;28;20463;-67
2022/08/09 04:24:53;;;;;;;12.20;11.23;;;15.00;99.90;;;;;;5039736;28;20534;-66
2022/08/09 04:27:20;;;;;;;12.70;11.70;;;15.00;99.90;;;;;;5038350;28;20466;-66
2022/08/09 04:29:46;;;;;;;13.17;12.13;;;15.00;99.90;;;;;;5038227;28;20684;-68
2022/08/09 04:32:13;;;;;;;13.27;12.30;;;14.90;99.90;;;;;;5036556;28;20832;-66
2022/08/09 04:34:41;;;;;;;13.33;12.23;;;15.00;99.90;;;;;;5038601;28;20524;-66
2022/08/09 04:37:07;;;;;;;16.07;12.23;;;15.00;99.90;;;;;;5036274;28;20462;-67
2022/08/09 04:39:34;;;;;;;13.23;12.07;;;14.90;99.90;;;;;;5038600;28;20463;-67
2022/08/09 04:42:03;;;;;;;13.53;12.33;;;14.90;99.90;;;;;;5037749;28;20866;-66
2022/08/09 04:44:30;;;;;;;14.37;12.63;;;14.90;99.90;;;;;;5038968;28;20478;-67
2022/08/09 04:46:57;;;;;;;13.10;11.70;;;15.00;99.90;;;;;;5036995;28;20498;-67
2022/08/09 04:49:24;;;;;;;13.57;12.27;;;15.00;99.90;;;;;;5037730;28;20459;-67
2022/08/09 04:51:51;;;;;;;14.03;13.13;;;15.10;99.90;;;;;;5037158;28;20463;-67
2022/08/09 04:54:18;;;;;;;12.73;11.53;;;15.10;99.90;;;;;;5037233;28;20789;-67
2022/08/09 04:56:45;;;;;;;12.33;11.33;;;15.10;99.90;;;;;;5038195;28;20985;-67
2022/08/09 04:59:14;;;;;;;11.97;11.03;;;15.10;99.90;;;;;;5037634;28;20550;-67
2022/08/09 05:01:41;;;;;;;13.77;12.77;;;15.10;99.90;;;;;;5037929;28;20477;-66
2022/08/09 05:04:08;;;;;;;13.97;12.77;;;15.10;99.90;;;;;;5036666;28;20523;-67
2022/08/09 05:06:34;;;;;;;12.47;11.67;;;15.20;99.90;;;;;;5036644;28;20891;-67
2022/08/09 05:09:01;;;;;;;13.60;12.40;;;15.30;99.90;;;;;;5036674;28;21057;-66
2022/08/09 05:11:29;;;;;;;13.23;12.23;;;15.40;99.90;;;;;;5036456;28;20464;-66
2022/08/09 05:13:55;;;;;;;13.47;12.37;;;15.50;99.90;;;;;;5037543;28;20475;-67
2022/08/09 05:16:24;;;;;;;14.27;12.90;;;15.50;99.90;;;;;;5037200;28;20510;-66
2022/08/09 05:18:51;;;;;;;13.60;12.77;;;15.60;99.90;;;;;;5035875;28;20555;-67
2022/08/09 05:21:18;;;;;;;14.60;13.20;;;15.60;99.90;;;;;;5035898;28;20495;-67
2022/08/09 05:23:45;;;;;;;13.43;12.43;;;15.70;99.90;;;;;;5036511;28;20475;-67
2022/08/09 05:26:12;;;;;;;15.60;12.37;;;15.70;99.90;;;;;;5045164;28;20629;-67
2022/08/09 05:28:39;;;;;;;13.77;12.47;;;15.90;99.90;;;;;;5060744;28;21480;-66
2022/08/09 05:31:06;;;;;;;13.27;12.27;;;16.00;99.90;;;;;;5060501;28;20657;-67
2022/08/09 05:33:35;;;;;;;14.10;13.00;;;16.10;99.90;;;;;;5038637;28;21104;-67
2022/08/09 05:36:02;;;;;;;13.97;12.93;;;16.20;99.90;;;;;;5038712;28;20981;-67
2022/08/09 05:38:30;;;;;;;14.57;13.17;;;16.30;99.90;;;;;;5037398;28;20471;-66
2022/08/09 05:40:56;;;;;;;13.33;12.27;;;16.50;99.90;;;;;;5037706;28;21274;-66
2022/08/09 05:43:23;;;;;;;14.30;13.17;;;16.50;99.90;;;;;;5038203;28;20833;-66
2022/08/09 05:45:50;;;;;;;13.83;12.83;;;16.60;99.90;;;;;;5036904;28;20848;-67
2022/08/09 05:48:17;;;;;;;14.13;13.13;;;16.80;99.90;;;;;;5034659;28;21331;-66
2022/08/09 05:50:47;;;;;;;14.97;13.87;;;16.80;99.90;;;;;;5037523;28;20463;-66
2022/08/09 05:53:14;;;;;;;16.07;14.50;;;17.00;99.90;;;;;;5035710;28;20496;-66
2022/08/09 05:55:41;;;;;;;15.40;14.23;;;17.10;99.90;;;;;;5036772;28;20593;-67
2022/08/09 05:58:08;;;;;;;15.70;14.60;;;17.20;99.90;;;;;;5037387;28;20463;-67
2022/08/09 06:00:35;;;;;;;15.23;14.23;;;17.20;99.90;;;;;;5048720;28;20455;-67
2022/08/09 06:03:03;;;;;;;15.40;14.13;;;17.30;99.90;;;;;;5035095;28;20471;-68
2022/08/09 06:05:32;;;;;;;15.63;14.30;;;17.50;99.90;;;;;;5034415;28;20488;-66
2022/08/09 06:08:01;;;;;;;15.13;13.97;;;17.50;99.90;;;;;;5035374;28;20467;-66
2022/08/09 06:10:37;;;;;;;15.90;14.60;;;17.50;99.90;;;;;;5033966;28;20467;-67
2022/08/09 06:13:05;;;;;;;16.43;15.23;;;17.60;99.90;;;;;;5033594;28;20524;-67
2022/08/09 06:15:31;;;;;;;16.33;14.87;;;17.80;99.90;;;;;;5034459;28;20494;-67
2022/08/09 06:17:58;;;;;;;16.03;14.90;;;17.90;99.90;;;;;;5034551;28;20904;-67
2022/08/09 06:20:25;;;;;;;16.67;15.10;;;17.90;99.90;;;;;;5033037;28;20468;-67
2022/08/09 06:22:52;;;;;;;15.40;14.40;;;18.00;99.90;;;;;;5034780;28;20490;-67
2022/08/09 06:25:20;;;;;;;16.57;15.13;;;17.90;99.90;;;;;;5035644;28;20495;-67
2022/08/09 06:27:47;;;;;;;16.77;14.87;;;18.00;99.90;;;;;;5036521;28;20491;-67
2022/08/09 06:30:14;;;;;;;16.37;14.30;;;18.20;99.90;;;;;;5034236;28;20557;-68
2022/08/09 06:32:41;;;;;;;17.10;15.53;;;18.40;99.90;;;;;;5035544;28;20464;-66
2022/08/09 06:35:09;;;;;;;17.27;15.83;;;18.50;99.90;;;;;;5036318;28;20564;-66
2022/08/09 06:37:36;;;;;;;16.00;14.67;;;18.60;99.90;;;;;;5033022;28;20459;-67
2022/08/09 06:40:04;;;;;;;17.83;16.30;;;18.70;99.90;;;;;;5034274;28;20996;-67
2022/08/09 06:42:32;;;;;;;17.60;15.90;;;18.80;99.90;;;;;;5034058;28;20468;-66
2022/08/09 06:44:59;;;;;;;17.33;15.90;;;19.00;99.90;;;;;;5035140;28;20490;-68
2022/08/09 06:47:26;;;;;;;23.47;15.20;;;19.10;99.90;;;;;;5034324;28;20497;-66
2022/08/09 06:49:53;;;;;;;16.50;15.40;;;19.10;99.90;;;;;;5035238;28;20536;-68
2022/08/09 06:52:20;;;;;;;16.97;15.60;;;19.30;99.90;;;;;;5032540;28;20462;-68
2022/08/09 06:54:47;;;;;;;16.90;15.80;;;19.30;99.90;;;;;;5030319;28;20470;-67
2022/08/09 06:57:14;;;;;;;16.73;15.47;;;19.40;99.90;;;;;;5034149;28;21298;-67
2022/08/09 06:59:43;;;;;;;17.57;16.07;;;19.40;99.90;;;;;;5035065;28;21052;-68
2022/08/09 07:02:09;;;;;;;16.80;15.40;;;19.40;99.90;;;;;;5049692;28;20456;-68
2022/08/09 07:04:36;;;;;;;17.33;15.97;;;19.60;99.90;;;;;;5066831;28;20459;-67
2022/08/09 07:07:04;;;;;;;19.67;17.67;;;19.80;99.90;;;;;;5061892;28;20470;-67
2022/08/09 07:09:31;;;;;;;17.80;16.60;;;20.00;99.90;;;;;;5061789;28;20467;-68
2022/08/09 07:11:57;;;;;;;17.57;16.27;;;20.20;99.90;;;;;;5043393;28;20467;-67
2022/08/09 07:14:24;;;;;;;17.73;16.10;;;20.30;99.90;;;;;;5034788;28;20478;-68
2022/08/09 07:16:52;;;;;;;17.27;16.10;;;20.30;99.90;;;;;;5035084;28;20483;-67
2022/08/09 07:19:20;;;;;;;18.37;17.07;;;20.40;99.90;;;;;;5036072;28;20460;-66
2022/08/09 07:21:48;;;;;;;17.20;16.20;;;20.40;99.90;;;;;;5033682;28;22414;-67
2022/08/09 07:24:14;;;;;;;17.37;16.27;;;20.60;99.90;;;;;;5031125;28;20982;-67
2022/08/09 07:26:41;;;;;;;17.63;16.37;;;20.90;99.90;;;;;;5033941;28;20495;-68
2022/08/09 07:29:08;;;;;;;17.73;16.50;;;20.90;99.90;;;;;;5034711;28;20471;-68
2022/08/09 07:31:35;;;;;;;18.87;17.23;;;21.00;99.90;;;;;;5033346;28;20470;-67
2022/08/09 07:34:03;;;;;;;19.13;17.10;;;20.90;99.90;;;;;;5032855;28;20470;-68
2022/08/09 07:36:31;;;;;;;18.10;16.70;;;21.00;99.90;;;;;;5032450;28;20468;-67
2022/08/09 07:38:58;;;;;;;20.93;16.57;;;21.10;99.90;;;;;;5034931;28;20501;-67
2022/08/09 07:41:25;;;;;;;17.83;16.70;;;21.10;99.90;;;;;;5034542;28;20472;-67
2022/08/09 07:43:52;;;;;;;17.67;16.10;;;21.20;99.90;;;;;;5034127;28;22508;-68
2022/08/09 07:46:19;;;;;;;16.70;15.70;;;21.30;99.90;;;;;;5039592;28;20506;-67
2022/08/09 07:48:46;;;;;;;18.13;16.20;;;21.60;99.90;;;;;;5041285;28;20585;-68
2022/08/09 07:51:15;;;;;;;18.03;16.27;;;21.60;99.90;;;;;;5042097;28;20585;-68
2022/08/09 07:53:41;;;;;;;16.53;15.63;;;21.60;99.90;;;;;;5040345;28;20459;-68
2022/08/09 07:56:08;;;;;;;18.13;16.60;;;21.70;99.90;;;;;;5039469;28;20961;-67
2022/08/09 07:58:35;;;;;;;17.27;16.30;;;21.80;99.90;;;;;;5043057;28;20638;-68
2022/08/09 08:01:03;;;;;;;16.33;15.30;;;21.90;99.90;;;;;;5044348;28;20467;-68
2022/08/09 08:03:30;;;;;;;16.60;15.50;;;22.10;99.90;;;;;;5037803;28;20474;-68
2022/08/09 08:05:57;;;;;;;16.63;15.63;;;22.30;99.90;;;;;;5040728;28;20479;-68
2022/08/09 08:08:25;;;;;;;16.97;15.77;;;22.40;99.90;;;;;;5041226;28;20556;-68
2022/08/09 08:10:52;;;;;;;17.60;16.40;;;22.50;99.90;;;;;;5038781;28;20475;-68
2022/08/09 08:13:19;;;;;;;17.40;16.20;;;22.60;99.90;;;;;;5038958;28;21126;-68
2022/08/09 08:15:45;;;;;;;50.57;17.27;;;22.60;99.90;;;;;;5037657;28;20513;-68
2022/08/09 08:18:13;;;;;;;17.90;16.70;;;22.70;99.90;;;;;;5037816;28;20973;-67
2022/08/09 08:20:40;;;;;;;16.83;15.83;;;22.70;99.90;;;;;;5040518;28;20474;-68
2022/08/09 08:23:07;;;;;;;16.43;15.53;;;22.60;99.90;;;;;;5040302;28;20467;-68
2022/08/09 08:25:36;;;;;;;17.50;16.40;;;22.50;99.90;;;;;;5040002;28;20485;-68
2022/08/09 08:28:03;;;;;;;17.00;15.80;;;22.60;99.90;;;;;;5040176;28;20455;-67
2022/08/09 08:30:29;;;;;;;17.23;15.97;;;22.80;99.90;;;;;;5040018;28;21376;-68
2022/08/09 08:32:56;;;;;;;17.50;16.43;;;23.00;99.90;;;;;;5040331;28;20494;-68
2022/08/09 08:35:23;;;;;;;17.10;16.10;;;23.00;99.90;;;;;;5038614;28;20756;-68
2022/08/09 08:37:51;;;;;;;17.60;16.20;;;23.20;99.90;;;;;;5039873;28;20516;-69
2022/08/09 08:40:18;;;;;;;17.40;16.37;;;23.10;99.90;;;;;;5038348;28;20460;-68
2022/08/09 08:42:47;;;;;;;18.00;16.90;;;23.60;99.90;;;;;;5040618;28;20474;-68
2022/08/09 08:45:17;;;;;;;18.17;16.57;;;24.40;99.90;;;;;;5039294;28;20510;-67
2022/08/09 08:47:45;;;;;;;18.67;17.50;;;25.00;99.90;;;;;;5039396;28;20486;-68
2022/08/09 08:50:15;;;;;;;18.77;17.03;;;25.80;99.90;;;;;;5039264;28;20492;-68
2022/08/09 08:52:42;;;;;;;18.17;17.10;;;25.70;99.90;;;;;;5039731;28;20482;-68
2022/08/09 08:55:10;;;;;;;19.50;17.60;;;26.00;99.90;;;;;;5040467;28;20455;-68
2022/08/09 08:57:37;;;;;;;18.30;17.00;;;25.80;99.90;;;;;;5038351;28;20492;-69
2022/08/09 09:00:09;;;;;;;18.00;16.80;;;26.00;99.90;;;;;;5037653;28;21811;-68
2022/08/09 09:02:37;;;;;;;19.23;17.73;;;26.70;99.80;;;;;;5040414;28;20502;-68
2022/08/09 09:05:04;;;;;;;18.93;17.07;;;27.00;98.90;;;;;;5037615;28;20447;-68
2022/08/09 09:07:33;;;;;;;18.13;17.07;;;27.50;97.50;;;;;;5036510;28;20494;-67
2022/08/09 09:10:06;;;;;;;18.23;17.07;;;27.40;96.80;;;;;;5037711;28;20475;-68
2022/08/09 09:12:34;;;;;;;18.40;17.30;;;26.90;96.50;;;;;;5037794;28;20482;-68
2022/08/09 09:15:01;;;;;;;18.13;16.73;;;27.30;95.60;;;;;;5037399;28;21069;-68
2022/08/09 09:17:29;;;;;;;18.93;17.50;;;26.50;95.00;;;;;;5036731;28;20463;-68
2022/08/09 09:19:56;;;;;;;18.67;17.23;;;26.50;96.00;;;;;;5035333;28;20463;-69
2022/08/09 09:22:23;;;;;;;18.47;17.40;;;27.60;94.80;;;;;;5036777;28;20470;-68
2022/08/09 09:24:52;;;;;;;18.00;16.90;;;27.90;93.50;;;;;;5034700;28;21269;-68
2022/08/09 09:27:20;;;;;;;18.37;17.20;;;28.20;93.30;;;;;;5035310;28;20994;-67
2022/08/09 09:29:47;;;;;;;19.10;17.63;;;28.20;91.50;;;;;;5035888;28;20460;-68
2022/08/09 09:32:19;;;;;;;18.80;17.57;;;28.10;91.60;;;;;;5034987;28;20466;-68
2022/08/09 09:35:02;;;;;;;20.13;18.40;;;28.40;91.20;;;;;;5035714;28;20471;-68
2022/08/09 09:37:30;;;;;;;19.93;18.43;;;28.90;91.10;;;;;;5035443;28;20455;-68
2022/08/09 09:39:57;;;;;;;19.30;17.93;;;29.20;87.70;;;;;;5035999;28;20471;-68
2022/08/09 09:42:26;;;;;;;18.83;17.23;;;28.90;86.40;;;;;;5036668;28;20836;-68
2022/08/09 09:44:58;;;;;;;18.37;17.27;;;28.70;86.50;;;;;;5035913;28;20562;-68
2022/08/09 09:47:26;;;;;;;18.40;17.20;;;28.60;84.60;;;;;;5036023;28;20497;-68
2022/08/09 09:49:58;;;;;;;19.13;17.50;;;28.50;84.90;;;;;;5034506;28;20554;-68
2022/08/09 09:52:26;;;;;;;19.23;17.57;;;28.60;83.50;;;;;;5035447;28;20470;-68
2022/08/09 09:55:01;;;;;;;18.10;16.77;;;29.00;82.00;;;;;;5034641;28;20472;-68
2022/08/09 09:57:28;;;;;;;19.07;17.20;;;29.40;80.60;;;;;;5036851;28;20462;-69
2022/08/09 09:59:55;;;;;;;18.47;17.13;;;29.40;78.80;;;;;;5035974;28;20467;-69
2022/08/09 10:02:25;;;;;;;18.87;17.33;;;30.00;78.10;;;;;;5034418;28;21463;-69
2022/08/09 10:05:06;;;;;;;18.00;16.73;;;30.00;77.20;;;;;;5035067;28;20467;-69
2022/08/09 10:07:33;;;;;;;17.90;16.87;;;29.90;73.50;;;;;;5051822;28;20509;-69
2022/08/09 10:10:00;;;;;;;17.43;16.30;;;29.60;75.10;;;;;;5057852;28;20615;-68
2022/08/09 10:12:30;;;;;;;17.87;16.60;;;29.80;73.90;;;;;;5056625;28;20566;-69
2022/08/09 10:15:05;;;;;;;16.87;15.87;;;30.10;71.80;;;;;;5061000;28;20466;-68
2022/08/09 10:17:34;;;;;;;37.47;16.00;;;29.90;68.70;;;;;;5034398;28;20469;-69
2022/08/09 10:20:04;;;;;;;18.80;17.37;;;30.20;68.00;;;;;;5034230;28;20474;-69
2022/08/09 10:22:32;;;;;;;17.67;16.40;;;30.70;68.40;;;;;;5034483;28;20928;-70
2022/08/09 10:25:00;;;;;;;18.63;17.23;;;31.20;67.70;;;;;;5034816;28;20514;-68
2022/08/09 10:27:27;;;;;;;16.67;15.77;;;31.00;66.40;;;;;;5035565;28;20552;-69
2022/08/09 10:29:54;;;;;;;17.00;15.57;;;30.60;65.60;;;;;;5035092;28;21171;-68
2022/08/09 10:32:22;;;;;;;16.37;15.47;;;30.80;66.10;;;;;;5033657;28;20654;-69
2022/08/09 10:34:49;;;;;;;16.80;15.80;;;30.10;63.60;;;;;;5034499;28;20893;-69
2022/08/09 10:37:18;;;;;;;17.33;16.13;;;29.30;63.50;;;;;;5035211;28;21046;-69
2022/08/09 10:39:46;;;;;;;17.40;16.03;;;29.50;66.20;;;;;;5035408;28;20440;-69
2022/08/09 10:42:14;;;;;;;17.97;16.67;;;29.90;62.80;;;;;;5035924;28;20485;-68
2022/08/09 10:44:42;;;;;;;16.87;15.87;;;29.70;64.20;;;;;;5035951;28;20497;-70
2022/08/09 10:47:55;;;;;;;17.00;15.73;;;29.90;65.50;;;;;;5034333;28;20869;-69
2022/08/09 10:51:05;;;;;;;17.07;15.87;;;29.80;64.30;;;;;;4952345;28;20494;-69
2022/08/09 10:53:37;;;;;;;17.10;15.90;;;29.70;62.40;;;;;;5035126;28;21124;-68
2022/08/09 10:56:18;;;;;;;16.70;15.73;;;29.40;62.90;;;;;;5035130;28;20553;-67
2022/08/09 10:58:46;;;;;;;16.80;15.90;;;30.10;62.60;;;;;;5029041;28;20513;-69
2022/08/09 11:01:41;;;;;;;18.20;16.90;;;30.80;61.60;;;;;;5033325;28;20833;-69
2022/08/09 11:04:13;;;;;;;17.17;16.17;;;31.70;60.30;;;;;;5033518;28;20913;-68
2022/08/09 11:06:41;;;;;;;17.70;16.50;;;31.50;57.70;;;;;;5034480;28;20486;-69
2022/08/09 11:09:11;;;;;;;17.20;16.17;;;31.70;57.70;;;;;;5034251;28;20964;-68
2022/08/09 11:12:09;;;;;;;17.67;16.07;;;32.30;56.40;;;;;;5035099;28;20520;-68
2022/08/09 11:14:40;;;;;;;17.80;16.70;;;32.20;55.80;;;;;;5034609;28;20620;-68
2022/08/09 11:17:42;;;;;;;18.37;17.20;;;32.50;55.50;;;;;;5033808;28;20491;-68
2022/08/09 11:20:10;;;;;;;17.80;16.40;;;32.10;55.10;;;;;;5024618;28;20466;-68
2022/08/09 11:23:04;;;;;;;17.37;16.23;;;32.40;54.10;;;;;;5034300;28;20540;-68
2022/08/09 11:25:44;;;;;;;18.47;17.27;;;32.80;53.30;;;;;;5033469;28;20475;-68
2022/08/09 11:28:37;;;;;;;18.10;17.00;;;33.40;53.30;;;;;;5034580;28;20483;-68
2022/08/09 11:31:23;;;;;;;17.60;16.60;;;33.70;52.90;;;;;;5034511;28;20466;-69
2022/08/09 11:33:54;;;;;;;17.47;16.47;;;33.50;52.40;;;;;;5014030;28;20498;-69
2022/08/09 11:36:23;;;;;;;17.73;16.60;;;32.30;51.00;;;;;;5034038;28;21133;-69
2022/08/09 11:39:01;;;;;;;17.77;16.77;;;32.40;51.30;;;;;;5034438;28;22534;-69
2022/08/09 11:41:30;;;;;;;17.23;16.33;;;31.70;52.40;;;;;;5033587;28;20551;-69
2022/08/09 11:43:58;;;;;;;18.77;17.50;;;32.20;53.20;;;;;;5034724;28;20491;-69
2022/08/09 11:46:26;;;;;;;17.50;16.40;;;33.20;51.80;;;;;;5034528;28;21338;-68
2022/08/09 11:48:56;;;;;;;18.10;17.10;;;33.00;50.10;;;;;;5033863;28;20459;-69
2022/08/09 11:51:24;;;;;;;19.47;17.80;;;33.40;50.40;;;;;;5033945;28;20567;-69
2022/08/09 11:54:14;;;;;;;17.50;16.50;;;33.90;49.50;;;;;;5034117;28;20548;-69
2022/08/09 11:56:42;;;;;;;19.47;17.90;;;34.50;48.60;;;;;;5033702;28;20471;-69
2022/08/09 11:59:10;;;;;;;19.13;18.03;;;34.80;48.00;;;;;;5031835;28;20494;-69
2022/08/09 12:01:40;;;;;;;19.47;17.80;;;34.30;48.60;;;;;;5047899;28;20574;-69
2022/08/09 12:04:09;;;;;;;18.27;17.07;;;33.90;48.30;;;;;;5057846;28;20561;-68
2022/08/09 12:06:37;;;;;;;17.30;16.30;;;34.10;47.80;;;;;;5058057;28;20519;-68
2022/08/09 12:09:06;;;;;;;18.33;17.23;;;34.40;47.70;;;;;;5036118;28;20478;-69
2022/08/09 12:11:33;;;;;;;18.60;17.33;;;34.70;47.80;;;;;;5033916;28;20486;-68
2022/08/09 12:14:05;;;;;;;17.83;16.73;;;35.10;45.40;;;;;;5033345;28;21031;-69
2022/08/09 12:16:37;;;;;;;16.87;15.90;;;34.70;45.70;;;;;;5024242;28;20510;-69
2022/08/09 12:19:04;;;;;;;17.27;16.37;;;35.20;46.40;;;;;;5031452;28;21673;-69
2022/08/09 12:21:34;;;;;;;18.10;16.93;;;35.40;45.10;;;;;;5033348;28;20459;-69
2022/08/09 12:24:05;;;;;;;18.67;16.77;;;34.90;45.50;;;;;;5032494;28;20838;-69
2022/08/09 12:26:40;;;;;;;17.23;16.40;;;35.20;44.60;;;;;;5032786;28;20554;-69
2022/08/09 12:29:09;;;;;;;16.70;15.77;;;34.50;44.30;;;;;;5032867;28;20879;-69
2022/08/09 12:31:36;;;;;;;17.73;16.60;;;34.00;44.20;;;;;;5033597;28;20797;-69
2022/08/09 12:34:02;;;;;;;17.23;16.07;;;33.80;44.70;;;;;;5037296;28;20451;-69
2022/08/09 12:36:29;;;;;;;18.33;16.80;;;34.80;43.80;;;;;;5036910;28;20497;-68
2022/08/09 12:38:56;;;;;;;17.73;16.73;;;35.50;43.30;;;;;;5036994;28;20849;-68